Time;durP1;ratioP1;P1;durP2;ratioP2;P2;SDS_P1;SDS_P2;PMS_P1;PMS_P2;Temp;Humidity;BMP_temperature;BMP_pressure;BME280_temperature;BME280_humidity;BME280_pressure;Samples;Min_cycle;Max_cycle;Signal;HPM_P1;HPM_P2
2023/11/17 00:01:40;;;;;;;4.22;2.60;;;4.60;99.90;;;;;;12581442;28;20048;-34
2023/11/17 00:07:54;;;;;;;3.30;2.30;;;4.40;99.90;;;;;;12578663;28;20132;-34
2023/11/17 00:14:06;;;;;;;4.65;2.72;;;4.30;99.90;;;;;;12565142;28;20052;-34
2023/11/17 00:20:20;;;;;;;5.35;3.20;;;4.20;99.90;;;;;;12581350;28;20052;-34
2023/11/17 00:26:31;;;;;;;;;;;4.10;99.90;;;;;;12576080;28;20053;-34
2023/11/17 00:32:39;;;;;;;6.80;3.15;;;4.00;99.90;;;;;;12579285;28;19967;-34
2023/11/17 00:38:52;;;;;;;4.82;2.55;;;3.80;99.90;;;;;;12577600;28;20071;-34
2023/11/17 00:45:08;;;;;;;5.63;3.08;;;4.00;99.90;;;;;;12579713;28;20041;-34
2023/11/17 00:51:24;;;;;;;5.20;3.20;;;3.90;99.90;;;;;;12588260;28;20052;-34
2023/11/17 00:57:47;;;;;;;5.72;3.35;;;3.90;99.90;;;;;;12588644;28;20183;-34
2023/11/17 01:04:06;;;;;;;5.60;3.17;;;3.70;99.90;;;;;;12587652;28;20061;-34
2023/11/17 01:10:25;;;;;;;5.03;2.97;;;3.80;99.90;;;;;;12584671;28;20135;-34
2023/11/17 01:16:45;;;;;;;5.70;3.28;;;3.80;99.90;;;;;;12573996;28;20049;-35
2023/11/17 01:23:07;;;;;;;6.43;3.53;;;3.80;99.90;;;;;;12568781;28;20079;-34
2023/11/17 01:29:25;;;;;;;4.80;3.30;;;3.70;99.90;;;;;;12571390;28;20097;-34
2023/11/17 01:35:51;;;;;;;7.95;3.67;;;3.80;99.90;;;;;;12588636;28;20080;-35
2023/11/17 01:42:18;;;;;;;6.67;4.20;;;3.80;99.90;;;;;;12588633;28;20503;-34
2023/11/17 01:48:40;;;;;;;8.00;4.13;;;3.70;99.90;;;;;;12572463;28;20056;-34
2023/11/17 01:54:57;;;;;;;6.90;4.22;;;3.70;99.90;;;;;;12590086;28;20527;-35
2023/11/17 02:01:21;;;;;;;6.43;4.28;;;3.70;99.90;;;;;;12588891;28;20048;-34
2023/11/17 02:07:55;;;;;;;5.45;4.03;;;3.70;99.90;;;;;;12568194;28;20049;-34
2023/11/17 02:14:24;;;;;;;6.20;3.75;;;3.60;99.90;;;;;;12571254;28;20412;-34
2023/11/17 02:20:45;;;;;;;7.25;3.88;;;3.50;99.90;;;;;;12561343;28;20057;-34
2023/11/17 02:27:14;;;;;;;6.70;4.13;;;3.50;99.90;;;;;;12582383;28;20515;-34
2023/11/17 02:33:32;;;;;;;7.43;4.18;;;3.40;99.90;;;;;;12563340;28;20149;-34
2023/11/17 02:39:47;;;;;;;7.10;4.22;;;3.50;99.90;;;;;;12585454;28;20052;-34
2023/11/17 02:46:09;;;;;;;8.07;4.70;;;3.50;99.90;;;;;;12584072;28;20045;-34
2023/11/17 02:52:47;;;;;;;7.28;4.22;;;3.40;99.90;;;;;;12584322;28;20096;-35
2023/11/17 02:58:59;;;;;;;7.82;4.47;;;3.50;99.90;;;;;;12582001;28;20053;-35
2023/11/17 03:05:27;;;;;;;9.27;4.95;;;3.60;99.90;;;;;;12584840;28;20048;-34
2023/11/17 03:11:51;;;;;;;6.90;4.75;;;3.60;99.90;;;;;;12581516;28;20550;-35
2023/11/17 03:18:11;;;;;;;7.28;4.97;;;3.60;99.90;;;;;;12583240;28;20064;-34
2023/11/17 03:24:41;;;;;;;9.20;5.10;;;3.50;99.90;;;;;;12580730;28;20040;-34
2023/11/17 03:31:02;;;;;;;8.43;4.60;;;3.50;99.90;;;;;;12577981;28;20052;-34
2023/11/17 03:37:29;;;;;;;11.45;6.25;;;3.60;99.90;;;;;;12584322;28;20518;-34
2023/11/17 03:43:48;;;;;;;7.83;5.13;;;3.50;99.90;;;;;;12579417;28;20598;-35
2023/11/17 03:50:13;;;;;;;9.70;5.72;;;3.50;99.90;;;;;;12560193;28;20326;-34
2023/11/17 03:56:26;;;;;;;10.23;5.80;;;3.70;99.90;;;;;;12569303;28;20064;-34
2023/11/17 04:02:52;;;;;;;8.95;5.75;;;3.70;99.90;;;;;;12581845;28;20056;-34
2023/11/17 04:09:15;;;;;;;8.70;5.80;;;3.60;99.90;;;;;;12584632;28;20076;-34
2023/11/17 04:15:30;;;;;;;9.40;6.20;;;3.70;99.90;;;;;;12580423;28;20405;-34
2023/11/17 04:21:54;;;;;;;9.43;5.95;;;3.70;99.90;;;;;;12594693;28;20083;-35
2023/11/17 04:28:23;;;;;;;10.02;5.75;;;3.70;99.90;;;;;;12593680;28;20091;-34
2023/11/17 04:34:49;;;;;;;10.77;5.65;;;3.80;99.90;;;;;;12591463;28;20084;-33
2023/11/17 04:41:04;;;;;;;7.95;5.65;;;3.70;99.90;;;;;;12596485;28;20040;-34
2023/11/17 04:47:23;;;;;;;7.60;4.93;;;3.80;99.90;;;;;;12572811;28;20056;-34
2023/11/17 04:53:35;;;;;;;13.32;5.35;;;3.80;99.90;;;;;;12573946;28;20427;-35
2023/11/17 05:00:04;;;;;;;8.65;5.25;;;3.80;99.90;;;;;;12587539;28;20484;-34
2023/11/17 05:06:29;;;;;;;7.50;4.77;;;3.90;99.90;;;;;;12574656;28;20091;-35
2023/11/17 05:12:56;;;;;;;6.57;4.20;;;3.80;99.90;;;;;;12590304;28;20402;-35
2023/11/17 05:19:34;;;;;;;8.07;4.82;;;3.90;99.90;;;;;;12590327;28;20437;-34
2023/11/17 05:25:51;;;;;;;6.43;4.22;;;3.80;99.90;;;;;;12594423;28;20540;-34
2023/11/17 05:32:08;;;;;;;;;;;3.70;99.90;;;;;;12575212;28;20575;-34
2023/11/17 05:38:34;;;;;;;6.25;3.90;;;3.70;99.90;;;;;;12591338;28;19928;-35
2023/11/17 05:44:56;;;;;;;6.22;3.63;;;3.80;99.90;;;;;;12588269;28;20132;-34
2023/11/17 05:51:17;;;;;;;7.47;3.58;;;3.80;99.90;;;;;;12571659;28;20053;-35
2023/11/17 05:57:42;;;;;;;7.28;3.40;;;3.90;99.90;;;;;;12570450;28;20091;-34
2023/11/17 06:04:08;;;;;;;5.90;3.60;;;4.00;99.90;;;;;;12589326;28;20146;-34
2023/11/17 06:10:44;;;;;;;6.10;3.83;;;4.00;99.90;;;;;;12589048;28;20043;-34
2023/11/17 06:17:19;;;;;;;6.50;3.55;;;4.00;99.90;;;;;;12591695;28;20071;-34
2023/11/17 06:23:43;;;;;;;6.75;3.58;;;4.00;99.90;;;;;;12568707;28;20045;-34
2023/11/17 06:30:02;;;;;;;7.28;3.55;;;4.10;99.90;;;;;;12586740;28;20090;-35
2023/11/17 06:36:37;;;;;;;7.68;4.20;;;4.20;99.90;;;;;;12585619;28;20048;-35
2023/11/17 06:42:58;;;;;;;6.25;4.05;;;4.10;99.90;;;;;;12567193;28;20040;-34
2023/11/17 06:49:22;;;;;;;7.28;3.97;;;4.10;99.90;;;;;;12584356;28;20127;-34
2023/11/17 06:55:39;;;;;;;5.60;3.47;;;4.10;99.90;;;;;;12584716;28;20060;-34
2023/11/17 07:02:00;;;;;;;7.22;3.65;;;4.00;99.90;;;;;;12588945;28;20056;-34
2023/11/17 07:08:42;;;;;;;4.90;3.38;;;4.10;99.90;;;;;;12582100;28;20053;-35
2023/11/17 07:15:17;;;;;;;7.73;3.80;;;3.90;99.90;;;;;;12584033;28;20056;-35
2023/11/17 07:21:39;;;;;;;7.85;3.70;;;4.00;99.90;;;;;;12584112;28;20064;-35
2023/11/17 07:27:58;;;;;;;7.50;3.72;;;4.20;99.90;;;;;;12560785;28;20044;-35
2023/11/17 07:34:28;;;;;;;5.53;3.45;;;4.20;99.90;;;;;;12582840;28;20420;-35
2023/11/17 07:41:02;;;;;;;5.63;3.60;;;4.20;99.90;;;;;;12587456;28;20052;-35
2023/11/17 07:47:48;;;;;;;5.85;3.00;;;4.20;99.90;;;;;;12581176;28;20053;-34
2023/11/17 07:54:24;;;;;;;5.60;3.45;;;4.30;99.90;;;;;;12589035;28;20056;-35
2023/11/17 08:00:48;;;;;;;6.28;3.08;;;4.40;99.90;;;;;;12590984;28;20552;-35
2023/11/17 08:07:11;;;;;;;7.10;4.30;;;4.60;99.90;;;;;;12593067;28;20083;-35
2023/11/17 08:13:27;;;;;;;6.70;3.75;;;4.60;99.90;;;;;;12593686;28;20068;-35
2023/11/17 08:20:01;;;;;;;7.13;4.03;;;4.70;99.90;;;;;;12574780;28;20263;-35
2023/11/17 08:26:38;;;;;;;7.45;3.83;;;4.60;99.90;;;;;;12590017;28;20408;-35
2023/11/17 08:33:29;;;;;;;5.55;3.28;;;4.80;99.90;;;;;;12577227;28;20067;-35
2023/11/17 08:39:50;;;;;;;5.93;3.92;;;4.90;99.90;;;;;;12593955;28;20064;-35
2023/11/17 08:46:14;;;;;;;6.50;3.70;;;4.80;99.90;;;;;;12590303;28;20044;-35
2023/11/17 08:52:47;;;;;;;10.38;3.65;;;5.00;99.90;;;;;;12596077;28;20445;-34
2023/11/17 08:58:58;;;;;;;8.75;3.83;;;4.90;99.90;;;;;;12568479;28;20190;-35
2023/11/17 09:05:16;;;;;;;7.38;3.92;;;5.10;99.90;;;;;;12591585;28;20044;-35
2023/11/17 09:11:33;;;;;;;5.75;3.95;;;5.10;99.90;;;;;;12587341;28;20964;-35
2023/11/17 09:17:47;;;;;;;6.18;4.00;;;5.30;99.90;;;;;;12590369;28;20100;-35
2023/11/17 09:24:02;;;;;;;6.70;3.95;;;5.30;99.90;;;;;;12575402;28;20047;-35
2023/11/17 09:30:19;;;;;;;7.05;3.58;;;5.50;99.90;;;;;;12586037;28;20056;-34
2023/11/17 09:36:40;;;;;;;5.90;3.33;;;5.60;99.90;;;;;;12574740;28;20040;-35
2023/11/17 09:43:31;;;;;;;7.45;4.28;;;5.50;99.90;;;;;;12574786;28;20083;-34
2023/11/17 09:50:09;;;;;;;6.63;4.25;;;5.70;99.90;;;;;;12573858;28;20052;-35
2023/11/17 09:56:15;;;;;;;6.70;4.43;;;5.60;99.90;;;;;;12575569;28;20443;-35
2023/11/17 10:02:36;;;;;;;6.70;4.35;;;5.70;99.90;;;;;;12573291;28;20048;-35
2023/11/17 10:08:54;;;;;;;8.75;4.88;;;5.60;99.90;;;;;;12586388;28;20228;-35
2023/11/17 10:15:12;;;;;;;6.20;4.32;;;5.50;99.90;;;;;;12572423;28;20049;-35
2023/11/17 10:21:26;;;;;;;6.60;4.10;;;5.30;99.90;;;;;;12582878;28;20496;-35
2023/11/17 10:28:09;;;;;;;7.07;4.10;;;5.30;99.90;;;;;;12582295;28;20071;-34
2023/11/17 10:34:29;;;;;;;6.25;4.20;;;5.40;99.90;;;;;;12587743;28;20078;-35
2023/11/17 10:40:51;;;;;;;7.30;5.20;;;5.60;99.90;;;;;;12571775;28;20127;-35
2023/11/17 10:47:21;;;;;;;8.18;5.07;;;5.70;99.90;;;;;;12564834;28;20489;-35
2023/11/17 10:54:05;;;;;;;8.30;5.65;;;5.70;99.90;;;;;;12585116;28;20078;-35
2023/11/17 11:00:44;;;;;;;11.07;5.40;;;5.50;99.90;;;;;;12570766;28;20060;-35
2023/11/17 11:07:16;;;;;;;7.85;4.93;;;5.70;99.90;;;;;;12571876;28;20056;-35
2023/11/17 11:13:36;;;;;;;7.90;5.07;;;5.70;99.90;;;;;;12587622;28;20052;-35
2023/11/17 11:19:56;;;;;;;7.57;4.53;;;6.00;99.90;;;;;;12582800;28;20064;-35
2023/11/17 11:26:39;;;;;;;10.57;5.45;;;6.20;99.90;;;;;;12564671;28;20071;-35
2023/11/17 11:33:10;;;;;;;9.70;5.07;;;6.00;99.90;;;;;;12581560;28;20066;-34
2023/11/17 11:39:31;;;;;;;9.07;4.20;;;6.10;99.90;;;;;;12578844;28;20186;-35
2023/11/17 11:46:15;;;;;;;8.20;3.40;;;6.30;99.90;;;;;;12585661;28;20094;-35
2023/11/17 11:52:46;;;;;;;6.72;3.47;;;6.50;99.90;;;;;;12586147;28;20060;-35
2023/11/17 11:59:10;;;;;;;5.53;3.30;;;6.30;99.90;;;;;;12583517;28;20052;-35
2023/11/17 12:05:58;;;;;;;6.00;3.30;;;6.20;99.90;;;;;;12586286;28;20071;-34
2023/11/17 12:12:32;;;;;;;5.65;3.13;;;6.40;99.90;;;;;;12569347;28;20049;-35
2023/11/17 12:18:53;;;;;;;5.50;3.40;;;6.50;99.90;;;;;;12563438;28;20080;-35
2023/11/17 12:25:11;;;;;;;9.55;3.75;;;6.60;99.90;;;;;;12582081;28;20420;-35
2023/11/17 12:31:24;;;;;;;4.63;2.97;;;6.50;99.90;;;;;;12553103;28;20052;-35
2023/11/17 12:37:36;;;;;;;6.43;3.30;;;6.80;99.90;;;;;;12560826;28;20453;-35
2023/11/17 12:43:55;;;;;;;7.15;3.58;;;7.00;99.90;;;;;;12589086;28;20056;-35
2023/11/17 12:50:43;;;;;;;5.32;3.30;;;7.40;99.90;;;;;;12590755;28;20056;-35
2023/11/17 12:57:08;;;;;;;5.65;3.42;;;7.50;99.90;;;;;;12573048;28;20477;-35
2023/11/17 13:03:22;;;;;;;5.70;3.67;;;7.50;99.90;;;;;;12583718;28;20509;-35
2023/11/17 13:09:35;;;;;;;5.82;3.40;;;7.60;99.90;;;;;;12571156;28;20044;-35
2023/11/17 13:15:53;;;;;;;4.68;2.80;;;7.50;99.90;;;;;;12572814;28;20101;-35
2023/11/17 13:22:07;;;;;;;9.00;3.10;;;7.60;99.90;;;;;;12581825;28;20052;-35
2023/11/17 13:28:22;;;;;;;6.78;3.40;;;7.60;99.90;;;;;;12566950;28;20067;-35
2023/11/17 13:34:37;;;;;;;4.93;2.92;;;7.40;99.90;;;;;;12566655;28;20064;-35
2023/11/17 13:40:52;;;;;;;11.52;5.00;;;7.30;99.90;;;;;;12586642;28;20087;-35
2023/11/17 13:47:12;;;;;;;5.88;3.65;;;7.30;99.90;;;;;;12583536;28;20041;-35
2023/11/17 13:53:29;;;;;;;4.95;3.22;;;7.30;99.90;;;;;;12581846;28;20044;-35
2023/11/17 13:59:50;;;;;;;6.30;3.30;;;7.10;99.90;;;;;;12567910;28;20056;-34
2023/11/17 14:06:06;;;;;;;7.43;3.17;;;7.00;99.90;;;;;;12583517;28;20087;-35
2023/11/17 14:12:23;;;;;;;7.30;3.75;;;7.00;99.90;;;;;;12581655;28;20059;-35
2023/11/17 14:18:31;;;;;;;7.45;3.83;;;6.90;99.90;;;;;;12580863;28;20063;-35
2023/11/17 14:24:46;;;;;;;7.13;4.32;;;6.90;99.90;;;;;;12586446;28;20109;-35
2023/11/17 14:31:00;;;;;;;6.70;4.00;;;6.80;99.90;;;;;;12583142;28;20044;-35
2023/11/17 14:37:12;;;;;;;7.25;4.28;;;6.70;99.90;;;;;;12579702;28;20055;-35
2023/11/17 14:43:22;;;;;;;7.88;4.47;;;6.80;99.90;;;;;;12559404;28;20041;-34
2023/11/17 14:49:32;;;;;;;8.15;4.20;;;6.80;99.90;;;;;;12579868;28;20048;-35
2023/11/17 14:55:42;;;;;;;9.05;5.40;;;6.70;99.90;;;;;;12579551;28;20071;-35
2023/11/17 15:01:52;;;;;;;8.07;4.80;;;6.70;99.90;;;;;;12580393;28;20098;-35
2023/11/17 15:08:01;;;;;;;9.90;5.35;;;6.60;99.90;;;;;;12581804;28;20489;-35
2023/11/17 15:14:16;;;;;;;10.05;5.53;;;6.40;99.90;;;;;;12573555;28;20087;-34
2023/11/17 15:20:34;;;;;;;9.40;5.97;;;6.40;99.90;;;;;;12562156;28;20060;-34
2023/11/17 15:26:49;;;;;;;11.02;5.10;;;6.20;99.90;;;;;;12582710;28;20051;-34
2023/11/17 15:33:00;;;;;;;9.10;5.15;;;6.10;99.90;;;;;;12581143;28;20558;-35
2023/11/17 15:39:15;;;;;;;9.55;5.82;;;6.00;99.90;;;;;;12580795;28;20048;-34
2023/11/17 15:45:33;;;;;;;9.32;5.63;;;5.70;99.90;;;;;;12583602;28;20101;-33
2023/11/17 15:51:42;;;;;;;9.48;6.07;;;5.50;99.90;;;;;;12561295;28;20049;-35
2023/11/17 15:57:54;;;;;;;10.98;5.97;;;5.40;99.90;;;;;;12577439;28;20048;-34
2023/11/17 16:04:13;;;;;;;12.50;6.38;;;5.50;99.90;;;;;;12579473;28;20052;-35
2023/11/17 16:10:25;;;;;;;12.50;6.05;;;5.30;99.90;;;;;;12581876;28;20621;-35
2023/11/17 16:16:37;;;;;;;10.52;6.05;;;5.10;99.90;;;;;;12582568;28;20056;-35
2023/11/17 16:22:53;;;;;;;12.60;5.82;;;5.20;99.90;;;;;;12583169;28;20060;-35
2023/11/17 16:28:57;;;;;;;10.13;5.97;;;5.20;99.90;;;;;;12574574;28;20072;-35
2023/11/17 16:35:02;;;;;;;10.65;5.53;;;5.10;99.90;;;;;;12568331;28;20176;-34
2023/11/17 16:41:14;;;;;;;11.32;5.70;;;5.10;99.90;;;;;;12581206;28;20059;-34
2023/11/17 16:47:20;;;;;;;10.10;6.05;;;5.10;99.90;;;;;;12583315;28;20040;-35
2023/11/17 16:53:29;;;;;;;8.50;5.82;;;5.20;99.90;;;;;;12587740;28;20052;-35
2023/11/17 16:59:49;;;;;;;13.65;6.28;;;5.30;99.90;;;;;;12584061;28;20052;-35
2023/11/17 17:06:01;;;;;;;11.10;5.38;;;5.40;99.90;;;;;;12585483;28;20127;-35
2023/11/17 17:12:13;;;;;;;10.73;6.32;;;5.50;99.90;;;;;;12575981;28;20139;-35
2023/11/17 17:18:26;;;;;;;11.75;6.43;;;5.60;99.90;;;;;;12579327;28;20147;-35
2023/11/17 17:24:45;;;;;;;9.40;5.60;;;5.70;99.90;;;;;;12584406;28;20079;-34
2023/11/17 17:30:54;;;;;;;12.05;6.40;;;5.70;99.90;;;;;;12567854;28;20416;-35
2023/11/17 17:37:05;;;;;;;10.77;6.50;;;5.80;99.90;;;;;;12560240;28;20044;-34
2023/11/17 17:43:18;;;;;;;10.23;6.57;;;5.70;99.90;;;;;;12578970;28;20051;-35
2023/11/17 17:49:23;;;;;;;10.82;6.88;;;5.70;99.90;;;;;;12558128;28;20049;-35
2023/11/17 17:55:29;;;;;;;13.57;7.18;;;5.80;99.90;;;;;;12577311;28;20067;-35
2023/11/17 18:01:33;;;;;;;12.00;6.68;;;5.70;99.90;;;;;;12571376;28;20140;-35
2023/11/17 18:07:40;;;;;;;12.77;6.72;;;5.80;99.90;;;;;;12557269;28;20060;-34
2023/11/17 18:13:50;;;;;;;12.50;6.75;;;5.80;99.90;;;;;;12574888;28;20059;-35
2023/11/17 18:20:04;;;;;;;11.15;6.57;;;5.80;99.90;;;;;;12576750;28;20088;-35
2023/11/17 18:26:08;;;;;;;12.48;7.35;;;5.70;99.90;;;;;;12580984;28;20044;-35
2023/11/17 18:32:27;;;;;;;11.95;7.07;;;5.80;99.90;;;;;;12575095;28;20056;-35
2023/11/17 18:38:33;;;;;;;14.75;7.72;;;5.60;99.90;;;;;;12555338;28;20525;-34
2023/11/17 18:44:38;;;;;;;11.82;6.72;;;5.50;99.90;;;;;;12570825;28;20079;-34
2023/11/17 18:50:41;;;;;;;12.20;8.43;;;5.40;99.90;;;;;;12549071;28;20059;-34
2023/11/17 18:56:43;;;;;;;15.35;8.48;;;5.40;99.90;;;;;;12570821;28;20052;-35
2023/11/17 19:02:47;;;;;;;13.98;8.18;;;5.30;99.90;;;;;;12568624;28;20049;-34
2023/11/17 19:08:50;;;;;;;13.48;8.35;;;5.20;99.90;;;;;;12564987;28;20044;-34
2023/11/17 19:14:52;;;;;;;11.43;6.97;;;5.30;99.90;;;;;;12566039;28;20056;-35
2023/11/17 19:20:55;;;;;;;13.40;8.40;;;5.20;99.90;;;;;;12557034;28;20488;-35
2023/11/17 19:27:11;;;;;;;12.35;7.18;;;5.20;99.90;;;;;;12563840;28;20562;-35
2023/11/17 19:33:14;;;;;;;13.82;7.70;;;5.20;99.90;;;;;;12557829;28;20044;-35
2023/11/17 19:39:18;;;;;;;12.35;7.78;;;5.20;99.90;;;;;;12567576;28;20565;-35
2023/11/17 19:45:20;;;;;;;12.80;7.93;;;5.10;99.90;;;;;;12565552;28;20496;-35
2023/11/17 19:51:28;;;;;;;16.50;8.60;;;5.10;99.90;;;;;;12571158;28;20044;-34
2023/11/17 19:57:36;;;;;;;13.98;8.35;;;5.00;99.90;;;;;;12573596;28;20075;-34
2023/11/17 20:03:50;;;;;;;12.95;8.32;;;4.90;99.90;;;;;;12571291;28;20493;-35
2023/11/17 20:10:00;;;;;;;12.73;7.30;;;5.00;99.90;;;;;;12558939;28;20044;-35
2023/11/17 20:16:12;;;;;;;13.93;8.52;;;5.00;99.90;;;;;;12577759;28;20059;-35
2023/11/17 20:22:25;;;;;;;13.82;7.80;;;4.90;99.90;;;;;;12555923;28;20048;-36
2023/11/17 20:28:35;;;;;;;16.00;8.18;;;4.90;99.90;;;;;;12569047;28;20120;-34
2023/11/17 20:34:40;;;;;;;18.17;8.68;;;4.90;99.90;;;;;;12571812;28;20091;-35
2023/11/17 20:40:43;;;;;;;14.57;8.13;;;4.90;99.90;;;;;;12575686;28;20094;-35
2023/11/17 20:46:45;;;;;;;12.35;7.82;;;4.80;99.90;;;;;;12571102;28;21250;-35
2023/11/17 20:52:50;;;;;;;17.58;9.73;;;4.80;99.90;;;;;;12551694;28;20052;-34
2023/11/17 20:58:55;;;;;;;13.75;8.32;;;4.80;99.90;;;;;;12559104;28;20479;-34
2023/11/17 21:04:59;;;;;;;16.27;9.05;;;4.80;99.90;;;;;;12567933;28;20079;-34
2023/11/17 21:11:10;;;;;;;16.48;9.23;;;4.90;99.90;;;;;;12571826;28;20086;-34
2023/11/17 21:17:20;;;;;;;15.05;9.25;;;5.00;99.90;;;;;;12554506;28;20140;-34
2023/11/17 21:23:29;;;;;;;17.35;9.50;;;5.00;99.90;;;;;;12579525;28;20059;-34
2023/11/17 21:29:36;;;;;;;21.55;10.73;;;4.90;99.90;;;;;;12575342;28;20049;-34
2023/11/17 21:35:44;;;;;;;16.30;10.02;;;4.90;99.90;;;;;;12577045;28;20094;-35
2023/11/17 21:41:51;;;;;;;16.30;9.50;;;4.90;99.90;;;;;;12574456;28;20102;-34
2023/11/17 21:47:56;;;;;;;20.13;11.63;;;5.00;99.90;;;;;;12552373;28;20048;-34
2023/11/17 21:53:59;;;;;;;15.68;9.95;;;5.00;99.90;;;;;;12555598;28;20500;-34
2023/11/17 22:00:00;;;;;;;19.13;11.30;;;5.10;99.90;;;;;;12570702;28;20504;-34
2023/11/17 22:06:09;;;;;;;18.63;10.40;;;4.80;99.90;;;;;;12573692;28;20055;-34
2023/11/17 22:12:11;;;;;;;18.45;10.23;;;4.50;99.90;;;;;;12569230;28;20489;-34
2023/11/17 22:18:14;;;;;;;20.38;11.93;;;4.50;99.90;;;;;;12570706;28;20060;-34
2023/11/17 22:24:24;;;;;;;21.90;11.23;;;4.40;99.90;;;;;;12570299;28;20048;-34
2023/11/17 22:30:34;;;;;;;20.25;11.73;;;4.40;99.90;;;;;;12572674;28;20048;-34
2023/11/17 22:36:43;;;;;;;17.60;11.02;;;4.30;99.90;;;;;;12572125;28;20052;-34
2023/11/17 22:42:51;;;;;;;21.38;11.13;;;4.00;99.90;;;;;;12572337;28;20052;-34
2023/11/17 22:49:00;;;;;;;18.70;11.20;;;4.10;99.90;;;;;;12550926;28;20409;-35
2023/11/17 22:55:09;;;;;;;18.45;10.40;;;4.00;99.90;;;;;;12575134;28;20048;-34
2023/11/17 23:01:25;;;;;;;19.35;9.95;;;4.30;99.90;;;;;;12555872;28;20064;-34
2023/11/17 23:07:31;;;;;;;17.95;10.43;;;4.30;99.90;;;;;;12573171;28;20946;-34
2023/11/17 23:13:36;;;;;;;21.17;11.75;;;4.30;99.90;;;;;;12568464;28;20075;-34
2023/11/17 23:19:43;;;;;;;19.08;11.05;;;4.30;99.90;;;;;;12573241;28;20072;-34
2023/11/17 23:25:48;;;;;;;20.98;11.10;;;4.00;99.90;;;;;;12570600;28;20839;-34
2023/11/17 23:31:50;;;;;;;23.38;12.73;;;3.90;99.90;;;;;;12568910;28;20059;-35
2023/11/17 23:37:52;;;;;;;18.25;10.77;;;3.90;99.90;;;;;;12574303;28;20109;-35
2023/11/17 23:43:54;;;;;;;23.23;13.02;;;4.00;99.90;;;;;;12571716;28;20397;-35
2023/11/17 23:49:59;;;;;;;25.40;13.40;;;4.00;99.90;;;;;;12550218;28;20131;-34
2023/11/17 23:56:12;;;;;;;26.65;13.82;;;3.90;99.90;;;;;;12570047;28;20143;-35
